Flight Track Log - Related Links

Times and Time Zones

All times are in EDT time to prevent confusion due to time zone crossing. See the FLG3733 flight status page for this flight to view local times or setup timezone preferences in your user account.

Time Position Orientation Groundspeed Altitude Reporting Facility
EDT Latitude Longitude Course Direction KTS MPH feet Rate Location/Type
Sat 02:18:55 PM 33.6500 -84.4667 287° West 172 198 2,600  Level Atlanta TRACON
Sat 02:19:55 PM 33.6667 -84.5333 287° West 220 253 4,500 2,150 Climbing Atlanta TRACON
Sat 02:20:55 PM 33.7333 -84.5833 328° Northwest 284 327 6,900 2,500 Climbing Atlanta TRACON
Sat 02:21:55 PM 33.8167 -84.5667 North 303 349 9,500 2,231 Climbing Atlanta TRACON
Sat 02:22:56 PM 33.8667 -84.5000 48° Northeast 345 397 11,400 1,721 Climbing Atlanta TRACON
Sat 02:24:11 PM 33.9697 -84.3883 42° Northeast 396 456 13,400 1,913 Climbing Atlanta Center
Sat 02:25:14 PM 34.0742 -84.3544 15° North 384 442 15,800 1,968 Climbing Atlanta Center
Sat 02:26:16 PM 34.1703 -84.3211 16° North 386 444 17,500 1,742 Climbing Atlanta Center
Sat 02:27:18 PM 34.2767 -84.2842 16° North 393 452 19,400 1,839 Climbing Atlanta Center
Sat 02:28:20 PM 34.4053 -84.2517 12° North 394 453 21,300 1,645 Climbing Atlanta Center
Sat 02:29:22 PM 34.5158 -84.2261 11° North 398 458 22,800 1,306 Climbing Atlanta Center
Sat 02:30:24 PM 34.6275 -84.1992 11° North 405 466 24,000 1,104 Climbing Atlanta Center
Sat 02:31:27 PM 34.7522 -84.1686 11° North 420 483 25,100 1,008 Climbing Atlanta Center
Sat 02:32:29 PM 34.8722 -84.1428 10° North 434 499 26,100 919 Climbing Atlanta Center
Sat 02:33:31 PM 34.9953 -84.1119 12° North 445 512 27,000 435 Climbing Atlanta Center
Sat 02:34:33 PM 35.1450 -84.0781 10° North 453 521 27,000  Level Atlanta Center
Sat 02:35:35 PM 35.2678 -84.0492 11° North 445 512 27,000 242 Level Atlanta Center
Sat 02:36:37 PM 35.3928 -84.0194 11° North 457 526 27,500 480 Climbing Atlanta Center
Sat 02:37:40 PM 35.5192 -83.9897 11° North 464 534 28,000 240 Climbing Atlanta Center
Sat 02:38:42 PM 35.6450 -83.9597 11° North 462 532 28,000  Level Atlanta Center
Sat 02:39:44 PM 35.7986 -83.9214 11° North 467 537 28,000  Level Atlanta Center
Sat 02:40:46 PM 35.9261 -83.8917 11° North 466 536 28,000  Level Atlanta Center
Sat 02:41:48 PM 36.0522 -83.8686 North 463 533 28,000  Level Atlanta Center
Sat 02:42:50 PM 36.1811 -83.8472 North 463 533 28,000  Level Atlanta Center
Sat 02:43:48 PM 36.3103 -83.8239 North 467 537 28,000  Level Indianapolis Center
Sat 02:44:49 PM 36.4403 -83.8028 North 468 539 28,000  Level Indianapolis Center
Sat 02:45:51 PM 36.5858 -83.7775 North 468 539 28,000  Level Indianapolis Center
Sat 02:46:53 PM 36.7175 -83.7533 North 470 541 28,000  Level Indianapolis Center
Sat 02:47:54 PM 36.8489 -83.7306 North 471 542 28,000  Level Indianapolis Center
Sat 02:48:56 PM 36.9808 -83.7081 North 473 544 28,000  Level Indianapolis Center
Sat 02:49:57 PM 37.1128 -83.6836 North 473 544 28,000  Level Indianapolis Center
Sat 02:50:59 PM 37.2436 -83.6603 North 473 544 28,000  Level Indianapolis Center
Sat 02:52:01 PM 37.3756 -83.6364 North 473 544 28,000 -927 Level Indianapolis Center
Sat 02:53:02 PM 37.5056 -83.6122 North 473 544 26,100 -1,951 Descending Indianapolis Center
Sat 02:54:04 PM 37.6281 -83.5925 North 450 518 24,000 -2,000 Descending Indianapolis Center
Sat 02:55:05 PM 37.7486 -83.6636 335° Northwest 415 478 22,000 -1,024 Descending Indianapolis Center
Sat 02:56:07 PM 37.8461 -83.7358 330° Northwest 410 472 21,900 -1,016 Descending Indianapolis Center
Sat 02:57:09 PM 37.9425 -83.8025 331° Northwest 397 457 19,900 -1,951 Descending Indianapolis Center
Sat 02:58:10 PM 38.0328 -83.8667 331° Northwest 378 435 17,900 -1,902 Descending Indianapolis Center
Sat 02:59:12 PM 38.1219 -83.9303 331° Northwest 373 429 16,000 -1,902 Descending Indianapolis Center
Sat 03:00:13 PM 38.2094 -83.9928 331° Northwest 365 420 14,000 -1,951 Descending Indianapolis Center
Sat 03:01:15 PM 38.2944 -84.0544 330° Northwest 357 411 12,000 -1,463 Descending Indianapolis Center
Sat 03:02:16 PM 38.3922 -84.1247 331° Northwest 349 402 11,000 -488 Descending Indianapolis Center
Sat 03:03:18 PM 38.4761 -84.1858 330° Northwest 345 397 11,000  Level Indianapolis Center
Sat 03:04:20 PM 38.5603 -84.2467 331° Northwest 345 397 11,000  Level Indianapolis Center
Sat 03:05:21 PM 38.6464 -84.3089 331° Northwest 352 405 11,000  Level Indianapolis Center
Sat 03:06:23 PM 38.7350 -84.3861 326° Northwest 352 405 11,000 -488 Level Indianapolis Center
Sat 03:07:24 PM 38.8092 -84.4536 325° Northwest 334 384 10,000 -976 Descending Indianapolis Center
Sat 03:08:26 PM 38.8736 -84.5103 326° Northwest 294 338 9,000 -871 Descending Indianapolis Center
Sat 03:09:28 PM 38.9489 -84.5333 347° North 293 337 8,200 -976 Descending Indianapolis Center
Sat 03:10:29 PM 39.0267 -84.5375 358° North 283 326 7,000 -1,268 Descending Indianapolis Center
Sat 03:11:31 PM 39.1044 -84.5433 357° North 279 321 5,600 -1,463 Descending Indianapolis Center
Sat 03:12:32 PM 39.1792 -84.5528 354° North 277 319 4,000 -878 Descending Indianapolis Center
Sat 03:13:34 PM 39.2286 -84.5786 338° Northwest 235 270 3,800 -341 Descending Indianapolis Center
Sat 03:14:35 PM 39.2231 -84.6561 265° West 225 259 3,300 -659 Descending Indianapolis Center
Sat 03:16:18 PM 39.1167 -84.6500 177° South 178 205 2,000 -773 Descending Cincinnati TRACON
Sat 03:17:18 PM 39.0667 -84.6500 180° South 157 181 1,200 -800 Descending Cincinnati TRACON
Sat 03:19:00 PM 39.0488 -84.6678 237° Southwest  Level Estimated

Login

Don't have an account? Register now (free) for customized features, flight alerts, and more!